Time;durP1;ratioP1;P1;durP2;ratioP2;P2;SDS_P1;SDS_P2;PMS_P1;PMS_P2;Temp;Humidity;BMP_temperature;BMP_pressure;BME280_temperature;BME280_humidity;BME280_pressure;Samples;Min_cycle;Max_cycle;Signal;HPM_P1;HPM_P2
2023/08/16 00:01:36;;;;;;;6.30;5.10;;;;;;;21.77;56.60;100822.09;103766;279;39012;-74
2023/08/16 00:04:12;;;;;;;7.70;5.00;;;;;;;21.75;56.73;100820.16;103743;279;39837;-73
2023/08/16 00:06:51;;;;;;;6.50;5.10;;;;;;;21.73;56.80;100815.14;103753;279;39005;-74
2023/08/16 00:09:26;;;;;;;8.90;5.20;;;;;;;21.73;56.85;100815.55;103722;279;38450;-73
2023/08/16 00:12:00;;;;;;;7.00;5.00;;;;;;;21.72;56.84;100815.42;103804;279;38626;-73
2023/08/16 00:14:34;;;;;;;8.10;5.20;;;;;;;21.72;56.89;100815.94;103736;279;38286;-73
2023/08/16 00:17:08;;;;;;;6.50;5.00;;;;;;;21.70;56.75;100816.58;103773;268;38760;-75
2023/08/16 00:19:48;;;;;;;8.10;5.10;;;;;;;21.69;56.77;100819.14;103732;279;39415;-75
2023/08/16 00:22:25;;;;;;;6.80;4.60;;;;;;;21.68;56.84;100823.51;103785;279;39756;-74
2023/08/16 00:25:02;;;;;;;6.00;4.80;;;;;;;21.66;56.89;100821.35;103732;279;38236;-74
2023/08/16 00:27:39;;;;;;;5.40;4.70;;;;;;;21.63;56.88;100822.09;103777;279;39420;-73
2023/08/16 00:30:17;;;;;;;6.10;5.20;;;;;;;21.60;57.16;100823.41;103694;279;38891;-73
2023/08/16 00:32:51;;;;;;;5.20;4.70;;;;;;;21.53;57.59;100822.55;103790;279;38475;-73
2023/08/16 00:35:26;;;;;;;6.20;5.00;;;;;;;21.46;57.90;100821.70;103722;279;38515;-73
2023/08/16 00:38:00;;;;;;;6.30;4.80;;;;;;;21.38;58.19;100819.08;103734;279;38620;-75
2023/08/16 00:40:35;;;;;;;6.70;5.00;;;;;;;21.33;58.27;100819.98;103795;278;39716;-74
2023/08/16 00:43:08;;;;;;;7.20;5.20;;;;;;;21.28;58.59;100822.48;103855;279;39498;-73
2023/08/16 00:45:42;;;;;;;7.00;5.10;;;;;;;21.22;58.79;100821.66;103176;278;899270;-73
2023/08/16 00:48:19;;;;;;;6.00;5.10;;;;;;;21.18;58.89;100823.44;103859;279;39875;-73
2023/08/16 00:50:56;;;;;;;7.40;5.20;;;;;;;21.11;59.10;100824.78;103690;279;174798;-73
2023/08/16 00:53:31;;;;;;;7.50;4.80;;;;;;;21.04;59.32;100822.31;103719;279;38497;-73
2023/08/16 00:56:05;;;;;;;7.20;5.60;;;;;;;20.98;59.63;100819.43;103858;279;38430;-73
2023/08/16 00:58:40;;;;;;;6.20;5.10;;;;;;;20.93;59.76;100815.92;103828;278;38638;-73
2023/08/16 01:01:14;;;;;;;7.80;5.00;;;;;;;20.88;59.95;100818.56;103843;278;39404;-74
2023/08/16 01:03:50;;;;;;;8.00;4.90;;;;;;;20.82;60.24;100822.67;103818;274;38226;-76
2023/08/16 01:06:24;;;;;;;6.10;4.60;;;;;;;20.79;60.57;100826.50;103816;279;38258;-74
2023/08/16 01:08:59;;;;;;;5.30;4.70;;;;;;;20.73;60.71;100827.59;103874;279;38517;-74
2023/08/16 01:11:38;;;;;;;7.20;5.10;;;;;;;20.66;61.10;100828.65;103834;279;39377;-74
2023/08/16 01:14:17;;;;;;;6.20;4.90;;;;;;;20.58;61.46;100827.79;103803;279;38855;-74
2023/08/16 01:16:51;;;;;;;5.50;4.80;;;;;;;20.50;61.66;100826.10;103798;279;38268;-74
2023/08/16 01:19:33;;;;;;;5.70;4.70;;;;;;;20.43;62.09;100821.97;103849;279;38444;-72
2023/08/16 01:22:14;;;;;;;7.50;5.20;;;;;;;20.37;62.36;100824.34;103855;279;39406;-72
2023/08/16 01:25:05;;;;;;;7.70;5.00;;;;;;;20.33;62.55;100822.71;103826;279;38223;-72
2023/08/16 01:27:39;;;;;;;6.00;5.20;;;;;;;20.27;63.09;100823.65;103841;279;39127;-74
2023/08/16 01:30:14;;;;;;;7.40;5.40;;;;;;;20.21;63.38;100818.11;103849;279;38467;-74
2023/08/16 01:32:49;;;;;;;7.30;5.20;;;;;;;20.14;63.86;100811.98;103854;279;38481;-72
2023/08/16 01:35:23;;;;;;;6.30;4.70;;;;;;;20.07;63.98;100817.95;103812;279;39915;-73
2023/08/16 01:37:59;;;;;;;7.50;5.40;;;;;;;20.01;64.07;100820.70;103855;279;38795;-73
2023/08/16 01:40:35;;;;;;;6.80;5.00;;;;;;;19.93;64.20;100823.21;103719;278;174433;-73
2023/08/16 01:43:13;;;;;;;;;;;;;;;19.84;64.43;100826.83;103733;279;38544;-74
2023/08/16 01:45:47;;;;;;;6.10;5.20;;;;;;;19.72;64.67;100821.16;103796;279;38915;-74
2023/08/16 01:48:22;;;;;;;6.80;5.80;;;;;;;19.67;64.95;100819.21;103825;278;38278;-73
2023/08/16 01:51:00;;;;;;;6.00;5.40;;;;;;;19.62;65.03;100814.95;103806;279;38520;-73
2023/08/16 01:53:35;;;;;;;5.90;5.10;;;;;;;19.60;65.16;100817.91;103812;279;39410;-72
2023/08/16 01:56:12;;;;;;;5.80;5.30;;;;;;;19.60;65.29;100816.46;103836;279;38894;-74
2023/08/16 01:58:49;;;;;;;6.70;5.20;;;;;;;19.60;65.56;100815.43;103828;278;38754;-73
2023/08/16 02:01:23;;;;;;;6.30;5.70;;;;;;;19.57;65.71;100818.77;103843;279;38482;-73
2023/08/16 02:03:57;;;;;;;6.40;5.30;;;;;;;19.55;65.86;100818.16;103793;279;39651;-73
2023/08/16 02:06:32;;;;;;;7.30;5.40;;;;;;;19.54;65.96;100816.09;103722;279;38528;-73
2023/08/16 02:09:06;;;;;;;7.90;5.30;;;;;;;19.56;66.07;100814.07;103722;279;39205;-73
2023/08/16 02:11:40;;;;;;;7.10;5.70;;;;;;;19.58;66.27;100814.33;103742;279;38690;-73
2023/08/16 02:14:14;;;;;;;6.10;5.50;;;;;;;19.61;66.21;100811.67;103858;278;39663;-73
2023/08/16 02:16:47;;;;;;;7.70;5.80;;;;;;;19.63;66.21;100809.55;103821;279;40178;-73
2023/08/16 02:19:24;;;;;;;9.30;5.70;;;;;;;19.66;66.15;100804.94;103831;279;38509;-73
2023/08/16 02:21:57;;;;;;;10.00;6.20;;;;;;;19.68;66.38;100802.67;103827;279;40030;-73
2023/08/16 02:24:32;;;;;;;10.50;5.60;;;;;;;19.69;66.38;100800.27;103798;279;38765;-73
2023/08/16 02:27:07;;;;;;;9.30;5.60;;;;;;;19.70;66.39;100802.55;103805;278;39378;-75
2023/08/16 02:29:43;;;;;;;7.30;5.30;;;;;;;19.70;66.53;100804.29;103825;279;38294;-73
2023/08/16 02:32:17;;;;;;;6.50;5.80;;;;;;;19.71;66.34;100801.73;103818;278;38792;-74
2023/08/16 02:34:51;;;;;;;11.20;6.00;;;;;;;19.73;66.24;100802.70;103829;278;39812;-75
2023/08/16 02:37:32;;;;;;;8.00;5.70;;;;;;;19.73;66.20;100799.08;103861;279;38246;-74
2023/08/16 02:40:09;;;;;;;10.60;6.40;;;;;;;19.72;66.47;100801.70;103740;280;39894;-74
2023/08/16 02:42:49;;;;;;;8.70;6.00;;;;;;;19.68;66.47;100803.02;103729;280;38303;-73
2023/08/16 02:45:24;;;;;;;7.80;5.80;;;;;;;19.66;66.70;100803.38;103700;280;38280;-74
2023/08/16 02:48:00;;;;;;;8.10;6.00;;;;;;;19.67;66.48;100805.20;103741;280;38223;-72
2023/08/16 02:50:34;;;;;;;6.90;5.80;;;;;;;19.71;66.45;100803.90;103688;268;39013;-72
2023/08/16 02:53:07;;;;;;;7.30;5.90;;;;;;;19.74;66.17;100805.05;103729;280;38522;-74
2023/08/16 02:55:43;;;;;;;10.90;6.10;;;;;;;19.77;66.27;100804.02;103718;280;39624;-74
2023/08/16 02:58:17;;;;;;;8.80;5.80;;;;;;;19.80;66.10;100801.98;103756;280;38533;-75
2023/08/16 03:00:54;;;;;;;9.10;6.00;;;;;;;19.85;66.00;100798.10;103738;280;38404;-74
2023/08/16 03:03:28;;;;;;;8.80;5.60;;;;;;;19.90;65.91;100798.48;103732;280;38910;-73
2023/08/16 03:06:03;;;;;;;7.90;5.50;;;;;;;19.94;65.71;100800.81;103744;280;38315;-73
2023/08/16 03:08:37;;;;;;;9.30;5.80;;;;;;;19.98;65.43;100802.66;103691;280;38853;-73
2023/08/16 03:11:11;;;;;;;7.80;5.60;;;;;;;20.03;65.32;100800.71;103699;280;38232;-73
2023/08/16 03:13:45;;;;;;;7.30;6.40;;;;;;;20.05;65.32;100800.23;103694;280;38317;-74
2023/08/16 03:16:18;;;;;;;8.20;6.30;;;;;;;20.05;65.20;100801.45;103736;275;39435;-74
2023/08/16 03:18:53;;;;;;;8.30;5.20;;;;;;;20.04;65.26;100802.76;103619;280;174819;-72
2023/08/16 03:21:27;;;;;;;9.00;5.60;;;;;;;20.04;65.31;100803.30;103701;280;39948;-75
2023/08/16 03:24:01;;;;;;;6.30;5.50;;;;;;;20.05;65.20;100803.09;103753;279;38366;-74
2023/08/16 03:26:36;;;;;;;7.50;5.50;;;;;;;20.04;65.10;100810.38;103760;279;38892;-75
2023/08/16 03:29:10;;;;;;;7.50;5.60;;;;;;;20.04;65.24;100814.09;103761;279;38223;-74
2023/08/16 03:31:49;;;;;;;9.30;5.80;;;;;;;20.05;65.10;100808.02;103728;279;38515;-75
2023/08/16 03:34:24;;;;;;;6.90;5.40;;;;;;;20.08;64.97;100803.92;103665;279;38370;-74
2023/08/16 03:36:58;;;;;;;6.20;5.60;;;;;;;20.09;64.82;100806.85;103811;279;38483;-73
2023/08/16 03:39:31;;;;;;;8.40;5.50;;;;;;;20.09;64.83;100810.55;103826;277;38220;-73
2023/08/16 03:42:14;;;;;;;8.20;5.50;;;;;;;20.09;64.94;100812.34;103883;277;39689;-73
2023/08/16 03:44:49;;;;;;;5.90;5.10;;;;;;;20.09;64.70;100815.88;103290;277;677017;-74
2023/08/16 03:47:23;;;;;;;7.40;4.90;;;;;;;20.09;64.92;100824.75;103862;277;39705;-72
2023/08/16 03:50:00;;;;;;;8.10;5.30;;;;;;;20.09;65.01;100824.94;103856;277;38905;-72
2023/08/16 03:52:34;;;;;;;7.50;5.30;;;;;;;20.11;64.94;100830.31;103885;277;38370;-73
2023/08/16 03:55:10;;;;;;;7.50;5.80;;;;;;;20.13;65.15;100829.95;103863;277;39018;-73
2023/08/16 03:57:44;;;;;;;6.40;5.00;;;;;;;20.16;65.39;100837.42;103876;277;39420;-72
2023/08/16 04:00:21;;;;;;;8.10;5.90;;;;;;;20.16;65.52;100838.32;103810;277;38406;-72
2023/08/16 04:02:56;;;;;;;9.10;5.70;;;;;;;20.14;65.80;100837.35;103769;277;174805;-74
2023/08/16 04:05:29;;;;;;;5.90;5.40;;;;;;;20.15;66.11;100839.78;103818;277;38231;-74
2023/08/16 04:08:03;;;;;;;9.10;5.30;;;;;;;20.15;66.42;100840.09;103891;277;39639;-73
2023/08/16 04:10:37;;;;;;;6.60;5.90;;;;;;;20.12;66.77;100838.71;103838;277;38749;-73
2023/08/16 04:13:11;;;;;;;6.50;5.20;;;;;;;20.08;67.12;100839.48;103898;277;40085;-74
2023/08/16 04:15:48;;;;;;;8.00;5.70;;;;;;;20.06;67.43;100841.75;103808;277;38531;-74
2023/08/16 04:18:24;;;;;;;8.70;5.50;;;;;;;20.00;67.54;100845.88;103818;277;38231;-74
2023/08/16 04:21:01;;;;;;;7.10;5.00;;;;;;;19.94;67.92;100847.42;103703;277;174497;-76
2023/08/16 04:23:35;;;;;;;9.10;5.30;;;;;;;19.90;68.21;100846.83;103808;277;38254;-75
2023/08/16 04:26:12;;;;;;;10.40;5.20;;;;;;;19.89;68.44;100845.14;103854;277;38281;-74
2023/08/16 04:28:48;;;;;;;6.00;5.40;;;;;;;19.88;68.55;100847.13;103822;266;38326;-73
2023/08/16 04:31:23;;;;;;;7.90;6.90;;;;;;;19.90;68.37;100851.77;103897;277;38794;-73
2023/08/16 04:33:59;;;;;;;10.60;7.00;;;;;;;19.92;68.40;100851.62;103848;277;39975;-75
2023/08/16 04:36:33;;;;;;;11.90;8.40;;;;;;;19.95;68.19;100851.92;103869;277;39439;-74
2023/08/16 04:39:08;;;;;;;11.80;7.10;;;;;;;19.99;67.83;100850.92;103884;277;38987;-73
2023/08/16 04:41:44;;;;;;;8.00;6.40;;;;;;;20.05;67.44;100851.11;103947;277;38705;-73
2023/08/16 04:44:19;;;;;;;7.50;6.50;;;;;;;20.11;66.90;100848.36;103867;277;38825;-73
2023/08/16 04:46:53;;;;;;;8.00;6.10;;;;;;;20.21;66.67;100842.31;103905;277;38543;-72
2023/08/16 04:49:32;;;;;;;11.00;6.70;;;;;;;20.35;66.64;100844.51;103870;277;38757;-73
2023/08/16 04:52:07;;;;;;;11.80;6.10;;;;;;;20.55;66.25;100848.10;103894;277;40013;-73
2023/08/16 04:54:47;;;;;;;8.60;5.90;;;;;;;20.92;66.66;100849.27;103761;278;38714;-73
2023/08/16 04:57:26;;;;;;;8.80;6.10;;;;;;;21.55;66.03;100850.05;103833;277;38810;-73
2023/08/16 05:00:06;;;;;;;;;;;;;;;22.32;64.72;100849.21;103903;277;39451;-72
2023/08/16 05:02:41;;;;;;;9.80;6.40;;;;;;;22.93;63.17;100844.16;103744;277;174361;-74
2023/08/16 05:05:18;;;;;;;15.40;7.00;;;;;;;23.27;61.03;100843.50;103741;277;38763;-74
2023/08/16 05:07:52;;;;;;;9.70;6.20;;;;;;;23.33;59.54;100845.96;103850;277;38658;-73
2023/08/16 05:10:28;;;;;;;10.10;6.60;;;;;;;23.34;58.98;100849.42;103837;277;38512;-73
2023/08/16 05:13:04;;;;;;;12.70;7.40;;;;;;;23.37;58.44;100845.64;103837;277;39320;-74
2023/08/16 05:15:38;;;;;;;12.60;7.50;;;;;;;23.43;57.86;100841.19;103865;277;39027;-75
2023/08/16 05:18:15;;;;;;;15.10;8.00;;;;;;;23.48;57.56;100839.95;103936;277;38467;-73
2023/08/16 05:20:49;;;;;;;12.40;7.80;;;;;;;23.50;57.33;100836.89;103822;277;38865;-73
2023/08/16 05:23:27;;;;;;;12.30;7.20;;;;;;;23.53;56.96;100837.38;103841;277;39724;-73
2023/08/16 05:26:01;;;;;;;9.70;6.90;;;;;;;23.58;56.87;100835.88;103841;277;38883;-74
2023/08/16 05:28:37;;;;;;;10.60;7.30;;;;;;;23.64;56.58;100833.91;103871;277;38685;-73
2023/08/16 05:31:15;;;;;;;11.30;7.00;;;;;;;23.73;56.58;100830.46;103831;277;39418;-73
2023/08/16 05:33:51;;;;;;;10.80;7.10;;;;;;;23.80;56.11;100829.33;103872;277;38248;-73
2023/08/16 05:36:29;;;;;;;12.20;8.00;;;;;;;23.91;55.88;100830.20;103889;277;38601;-76
2023/08/16 05:39:06;;;;;;;10.40;7.00;;;;;;;24.10;55.78;100824.39;103849;277;38981;-76
2023/08/16 05:41:41;;;;;;;12.30;6.60;;;;;;;24.61;55.67;100819.59;103889;277;38868;-73
2023/08/16 05:44:16;;;;;;;15.30;6.70;;;;;;;25.29;54.48;100818.20;103869;277;38495;-74
2023/08/16 05:46:51;;;;;;;9.90;6.40;;;;;;;25.99;53.10;100822.37;103933;277;39545;-75
2023/08/16 05:49:25;;;;;;;14.30;6.70;;;;;;;26.68;51.49;100818.62;103924;277;38273;-74
2023/08/16 05:51:59;;;;;;;9.10;5.50;;;;;;;27.57;50.64;100817.91;103917;277;38525;-74
2023/08/16 05:54:37;;;;;;;8.80;5.60;;;;;;;28.63;48.92;100818.83;103933;277;40710;-74
2023/08/16 05:57:11;;;;;;;13.80;6.00;;;;;;;29.58;45.87;100825.86;103805;278;39474;-74
2023/08/16 05:59:48;;;;;;;13.10;5.50;;;;;;;30.49;44.13;100821.52;103798;277;171212;-74
2023/08/16 06:02:24;;;;;;;11.60;5.70;;;;;;;31.28;42.51;100819.86;103912;277;38428;-75
2023/08/16 06:04:59;;;;;;;9.80;5.00;;;;;;;32.14;40.48;100815.14;103938;277;39798;-75
2023/08/16 06:07:33;;;;;;;9.60;5.20;;;;;;;32.86;38.79;100818.23;103937;277;38752;-73
2023/08/16 06:10:10;;;;;;;7.80;4.80;;;;;;;33.57;37.36;100820.27;103897;277;38359;-73
2023/08/16 06:12:48;;;;;;;8.50;5.10;;;;;;;34.23;35.73;100824.15;103840;275;39254;-75
2023/08/16 06:15:23;;;;;;;7.20;5.10;;;;;;;34.64;34.13;100824.33;103908;277;39047;-75
2023/08/16 06:17:57;;;;;;;10.40;5.10;;;;;;;35.13;33.63;100823.27;103959;277;38794;-75
2023/08/16 06:20:32;;;;;;;9.60;5.10;;;;;;;35.66;32.38;100825.20;103908;277;39433;-74
2023/08/16 06:23:06;;;;;;;9.30;5.40;;;;;;;35.97;31.34;100827.98;103918;277;39839;-76
2023/08/16 06:25:40;;;;;;;7.10;4.90;;;;;;;36.46;31.27;100833.91;103922;277;40095;-76
2023/08/16 06:28:17;;;;;;;7.90;5.20;;;;;;;37.04;30.12;100833.01;103960;278;39724;-74
2023/08/16 06:30:52;;;;;;;9.70;5.20;;;;;;;37.53;29.18;100832.02;103937;277;38277;-75
2023/08/16 06:33:28;;;;;;;8.50;5.20;;;;;;;37.71;28.36;100834.09;103883;277;38261;-75
2023/08/16 06:36:04;;;;;;;10.30;5.30;;;;;;;37.74;28.07;100836.07;103798;277;174030;-76
2023/08/16 06:38:39;;;;;;;10.90;5.50;;;;;;;37.49;28.11;100834.34;103800;277;38779;-74
2023/08/16 06:41:15;;;;;;;7.70;5.80;;;;;;;37.11;28.39;100836.27;103868;277;40005;-74
2023/08/16 06:43:49;;;;;;;9.60;5.50;;;;;;;36.79;28.62;100840.45;103843;277;38249;-74
2023/08/16 06:46:27;;;;;;;10.00;5.90;;;;;;;36.54;28.70;100841.77;103848;277;38685;-74
2023/08/16 06:49:00;;;;;;;10.20;6.10;;;;;;;36.15;28.93;100837.34;103845;277;39794;-75
2023/08/16 06:51:35;;;;;;;6.30;5.50;;;;;;;35.67;29.57;100836.77;103898;277;38508;-75
2023/08/16 06:54:11;;;;;;;10.60;5.90;;;;;;;35.19;29.97;100833.81;103880;277;38528;-75
2023/08/16 06:56:49;;;;;;;11.00;5.80;;;;;;;34.71;30.27;100832.58;103891;277;38478;-74
2023/08/16 06:59:24;;;;;;;11.00;5.60;;;;;;;34.24;31.03;100836.23;103831;277;38649;-74
2023/08/16 07:01:58;;;;;;;10.10;6.00;;;;;;;33.87;31.87;100834.86;103864;277;38734;-75
2023/08/16 07:04:33;;;;;;;8.10;5.10;;;;;;;33.58;32.65;100831.90;103842;277;39322;-75
2023/08/16 07:07:08;;;;;;;8.20;5.30;;;;;;;33.28;32.88;100833.17;103769;279;39449;-74
2023/08/16 07:09:42;;;;;;;12.20;6.40;;;;;;;33.00;33.53;100833.49;103849;277;39362;-74
2023/08/16 07:12:21;;;;;;;7.20;5.60;;;;;;;32.77;33.80;100836.52;103843;277;39199;-74
2023/08/16 07:14:57;;;;;;;9.60;5.40;;;;;;;32.57;34.13;100835.27;103809;278;38462;-74
2023/08/16 07:17:31;;;;;;;9.50;6.20;;;;;;;32.37;34.61;100838.00;103861;277;38400;-74
2023/08/16 07:20:11;;;;;;;9.10;5.30;;;;;;;32.24;34.90;100840.48;103847;277;39403;-74
2023/08/16 07:22:47;;;;;;;10.10;6.20;;;;;;;32.31;35.11;100837.95;103906;277;38658;-74
2023/08/16 07:25:21;;;;;;;11.20;5.90;;;;;;;32.54;34.78;100838.85;103853;277;38907;-74
2023/08/16 07:27:55;;;;;;;10.20;5.50;;;;;;;32.74;34.21;100838.70;103873;277;38638;-74
2023/08/16 07:30:31;;;;;;;7.80;5.40;;;;;;;33.03;34.38;100841.20;103830;277;39291;-74
2023/08/16 07:33:06;;;;;;;8.90;5.30;;;;;;;33.39;33.69;100841.98;103877;277;38812;-74
2023/08/16 07:35:40;;;;;;;7.70;6.10;;;;;;;33.74;33.55;100840.11;103836;277;38874;-74
2023/08/16 07:38:14;;;;;;;8.00;5.40;;;;;;;34.16;33.24;100841.27;103846;277;39773;-75
2023/08/16 07:40:58;;;;;;;11.40;5.50;;;;;;;34.61;32.06;100836.86;103796;277;38692;-76
2023/08/16 07:43:32;;;;;;;10.00;6.00;;;;;;;35.18;32.18;100836.50;103870;277;39675;-75
2023/08/16 07:46:07;;;;;;;8.30;5.40;;;;;;;35.70;31.35;100833.35;103856;277;39568;-75
2023/08/16 07:48:44;;;;;;;8.40;5.60;;;;;;;36.11;30.24;100833.88;103838;277;39622;-74
2023/08/16 07:51:20;;;;;;;8.50;5.40;;;;;;;36.38;29.72;100833.27;103876;277;38227;-75
2023/08/16 07:53:54;;;;;;;7.90;5.90;;;;;;;36.66;29.27;100834.91;103855;266;38341;-76
2023/08/16 07:56:28;;;;;;;9.80;5.60;;;;;;;36.99;29.02;100831.58;103890;277;39474;-75
2023/08/16 07:59:03;;;;;;;8.70;5.40;;;;;;;37.44;28.55;100831.79;103842;277;38350;-76
2023/08/16 08:01:37;;;;;;;10.60;5.60;;;;;;;38.01;28.12;100831.64;103735;278;38364;-74
2023/08/16 08:04:11;;;;;;;11.40;5.20;;;;;;;38.57;27.23;100832.73;103747;277;173510;-74
2023/08/16 08:06:47;;;;;;;7.20;4.70;;;;;;;39.07;26.29;100831.46;103251;277;898811;-76
2023/08/16 08:09:21;;;;;;;11.80;5.40;;;;;;;39.55;25.99;100827.73;103834;277;38263;-75
2023/08/16 08:11:55;;;;;;;6.80;6.00;;;;;;;40.02;25.11;100833.34;103894;277;38269;-75
2023/08/16 08:14:30;;;;;;;7.90;5.10;;;;;;;40.30;24.35;100833.29;103818;277;38330;-75
2023/08/16 08:17:04;;;;;;;9.50;5.50;;;;;;;40.53;24.04;100835.95;103926;277;38475;-75
2023/08/16 08:19:38;;;;;;;9.50;5.60;;;;;;;40.65;23.69;100835.64;103815;278;38272;-75
2023/08/16 08:22:13;;;;;;;12.60;5.40;;;;;;;40.74;23.57;100831.30;103882;277;38364;-76
2023/08/16 08:24:48;;;;;;;9.60;5.40;;;;;;;40.90;23.32;100826.11;103823;277;39273;-76
2023/08/16 08:27:23;;;;;;;8.80;5.50;;;;;;;41.04;23.22;100823.06;103894;277;38454;-76
2023/08/16 08:30:00;;;;;;;6.80;5.10;;;;;;;41.04;22.98;100823.27;103850;277;38794;-76
2023/08/16 08:32:34;;;;;;;7.10;4.90;;;;;;;41.36;23.16;100824.30;103859;277;38702;-76
2023/08/16 08:35:10;;;;;;;6.30;4.90;;;;;;;41.65;22.39;100829.42;103813;277;39474;-76
2023/08/16 08:37:45;;;;;;;6.90;4.80;;;;;;;41.89;21.96;100817.46;103847;277;38274;-76
2023/08/16 08:40:20;;;;;;;8.50;5.20;;;;;;;41.95;21.98;100819.86;103781;277;38501;-76
2023/08/16 08:42:54;;;;;;;7.70;4.90;;;;;;;42.13;22.09;100819.63;103864;277;38657;-75
2023/08/16 08:45:30;;;;;;;6.70;4.80;;;;;;;42.14;21.50;100819.27;103847;277;38242;-75
2023/08/16 08:48:06;;;;;;;9.80;5.60;;;;;;;41.79;21.55;100819.45;103911;277;39597;-75
2023/08/16 08:50:46;;;;;;;8.40;5.10;;;;;;;41.25;22.20;100817.92;103839;277;39415;-75
2023/08/16 08:53:21;;;;;;;7.60;4.80;;;;;;;40.88;22.78;100818.27;103816;277;38710;-76
2023/08/16 08:56:10;;;;;;;8.40;5.10;;;;;;;40.54;22.99;100812.88;103852;277;38465;-75
2023/08/16 08:58:45;;;;;;;8.70;5.00;;;;;;;40.14;23.50;100815.48;103806;277;39337;-76
2023/08/16 09:01:20;;;;;;;6.10;4.40;;;;;;;39.92;23.95;100812.58;103885;277;39906;-76
2023/08/16 09:03:55;;;;;;;8.20;6.00;;;;;;;40.11;24.36;100815.02;103880;277;38392;-76
2023/08/16 09:06:31;;;;;;;9.40;5.30;;;;;;;40.61;24.09;100814.90;103847;277;38242;-75
2023/08/16 09:09:13;;;;;;;11.70;4.90;;;;;;;41.19;23.14;100813.65;103785;277;39965;-75
2023/08/16 09:11:52;;;;;;;8.70;4.70;;;;;;;41.70;22.66;100816.38;103886;277;38559;-76
2023/08/16 09:14:26;;;;;;;12.30;5.60;;;;;;;42.05;21.48;100812.66;103808;277;38283;-76
2023/08/16 09:17:01;;;;;;;10.40;5.10;;;;;;;42.32;21.03;100815.86;103791;278;38489;-75
2023/08/16 09:19:36;;;;;;;10.40;5.20;;;;;;;42.39;20.68;100813.70;103845;277;38361;-75
2023/08/16 09:22:11;;;;;;;6.20;4.70;;;;;;;42.61;21.21;100809.80;103858;277;38544;-76
2023/08/16 09:24:46;;;;;;;6.80;4.40;;;;;;;42.71;20.13;100808.76;103744;278;38492;-76
2023/08/16 09:27:31;;;;;;;6.80;4.10;;;;;;;42.64;20.13;100801.59;103859;277;38709;-76
2023/08/16 09:30:16;;;;;;;6.90;4.00;;;;;;;42.70;20.23;100802.14;103737;277;40255;-77
2023/08/16 09:32:51;;;;;;;5.00;4.40;;;;;;;42.59;19.71;100802.35;103884;277;39992;-75
2023/08/16 09:35:32;;;;;;;8.20;4.20;;;;;;;42.45;20.06;100808.52;103842;277;38425;-76
2023/08/16 09:38:09;;;;;;;4.80;4.00;;;;;;;42.22;20.35;100811.34;103920;277;38502;-76
2023/08/16 09:41:00;;;;;;;7.50;4.50;;;;;;;41.87;19.85;100806.16;103882;266;38243;-76
2023/08/16 09:43:36;;;;;;;9.30;4.90;;;;;;;41.46;20.46;100808.54;103844;277;39846;-74
2023/08/16 09:46:20;;;;;;;8.90;5.00;;;;;;;41.04;20.54;100808.84;103884;277;38356;-75
2023/08/16 09:49:06;;;;;;;8.10;4.50;;;;;;;40.45;20.78;100810.06;103904;277;39436;-74
2023/08/16 09:51:47;;;;;;;6.90;4.50;;;;;;;39.98;21.38;100804.85;103953;277;38264;-75
2023/08/16 09:54:21;;;;;;;9.40;5.00;;;;;;;39.66;21.89;100806.77;103913;277;38403;-75
2023/08/16 09:56:57;;;;;;;6.90;5.00;;;;;;;39.36;22.19;100805.96;103818;277;38383;-75
2023/08/16 09:59:31;;;;;;;7.10;5.00;;;;;;;39.12;22.49;100806.90;103923;277;39428;-74
2023/08/16 10:02:06;;;;;;;5.50;4.40;;;;;;;38.90;22.56;100805.73;103953;277;38512;-75
2023/08/16 10:04:41;;;;;;;7.50;4.70;;;;;;;38.61;22.34;100806.42;103791;277;38807;-76
2023/08/16 10:07:18;;;;;;;8.20;4.70;;;;;;;38.42;22.78;100804.34;103883;277;39420;-75
2023/08/16 10:09:54;;;;;;;6.20;4.20;;;;;;;38.25;23.47;100811.69;103908;277;38623;-75
2023/08/16 10:12:29;;;;;;;9.20;4.50;;;;;;;38.15;23.34;100805.84;103893;277;38731;-76
2023/08/16 10:15:06;;;;;;;11.40;4.40;;;;;;;38.13;24.00;100808.89;103938;277;38374;-76
2023/08/16 10:17:49;;;;;;;8.70;4.60;;;;;;;38.13;23.97;100806.36;103887;277;38362;-74
2023/08/16 10:20:35;;;;;;;6.30;4.80;;;;;;;38.09;23.51;100809.83;103946;277;38457;-75
2023/08/16 10:23:09;;;;;;;7.70;4.40;;;;;;;38.03;23.87;100809.98;103910;277;38798;-76
2023/08/16 10:25:48;;;;;;;9.20;4.30;;;;;;;37.97;23.60;100807.87;103946;277;40016;-76
2023/08/16 10:28:30;;;;;;;11.20;4.80;;;;;;;37.89;24.32;100811.79;103939;277;38259;-75
2023/08/16 10:31:06;;;;;;;6.70;4.40;;;;;;;37.79;24.07;100805.02;103937;277;38258;-76
2023/08/16 10:33:44;;;;;;;7.90;4.50;;;;;;;37.65;24.24;100802.85;103877;277;38738;-75
2023/08/16 10:36:19;;;;;;;6.80;4.20;;;;;;;37.62;24.51;100806.73;103943;277;40127;-76
2023/08/16 10:38:59;;;;;;;4.60;4.10;;;;;;;37.65;25.05;100807.55;103919;277;38615;-76
2023/08/16 10:41:45;;;;;;;9.00;4.50;;;;;;;37.72;25.01;100808.73;103317;274;890858;-75
2023/08/16 10:44:28;;;;;;;6.80;4.50;;;;;;;37.74;25.11;100809.45;103690;279;41618;-75
2023/08/16 10:47:01;;;;;;;5.10;4.30;;;;;;;37.74;24.37;100805.58;103951;277;38271;-75
2023/08/16 10:49:42;;;;;;;6.10;3.90;;;;;;;37.62;24.21;100804.05;103796;277;173792;-75
2023/08/16 10:52:16;;;;;;;5.10;4.60;;;;;;;37.59;24.70;100800.80;103913;277;40056;-76
2023/08/16 10:54:50;;;;;;;8.50;4.20;;;;;;;37.66;25.23;100802.34;103910;277;38969;-75
2023/08/16 10:57:29;;;;;;;5.10;3.90;;;;;;;37.68;25.15;100801.09;103920;277;38404;-75
2023/08/16 11:00:18;;;;;;;6.80;4.40;;;;;;;37.68;25.40;100800.88;103849;277;38443;-75
2023/08/16 11:02:58;;;;;;;6.80;4.40;;;;;;;37.69;25.26;100802.98;103792;279;39422;-75
2023/08/16 11:05:34;;;;;;;7.00;4.60;;;;;;;37.65;24.79;100802.52;103943;277;38240;-75
2023/08/16 11:08:15;;;;;;;5.10;4.60;;;;;;;37.61;25.45;100802.06;103959;277;38284;-75
2023/08/16 11:10:49;;;;;;;7.60;4.30;;;;;;;37.53;25.11;100807.05;103920;277;39242;-75
2023/08/16 11:13:29;;;;;;;6.60;4.60;;;;;;;37.28;24.76;100806.50;103713;278;38492;-75
2023/08/16 11:16:09;;;;;;;5.40;4.30;;;;;;;37.01;25.24;100807.35;103924;277;38581;-75
2023/08/16 11:18:46;;;;;;;7.50;4.50;;;;;;;36.92;25.28;100804.05;103876;277;39294;-75
2023/08/16 11:21:20;;;;;;;7.00;4.40;;;;;;;36.87;25.41;100803.23;103879;277;39024;-74
2023/08/16 11:23:55;;;;;;;6.70;4.80;;;;;;;36.79;25.37;100808.23;103872;277;39437;-74
2023/08/16 11:26:29;;;;;;;7.90;4.50;;;;;;;36.73;25.60;100809.67;103905;277;38379;-75
2023/08/16 11:29:03;;;;;;;6.50;4.80;;;;;;;36.72;26.08;100812.06;103857;277;39701;-75
2023/08/16 11:31:38;;;;;;;7.90;4.80;;;;;;;36.67;25.74;100808.52;103896;277;39662;-75
2023/08/16 11:34:15;;;;;;;6.90;4.80;;;;;;;36.56;25.65;100806.78;103874;277;39386;-74
2023/08/16 11:36:50;;;;;;;8.80;4.50;;;;;;;36.43;26.28;100809.36;103763;277;38937;-75
2023/08/16 11:39:25;;;;;;;8.20;4.90;;;;;;;36.41;26.79;100805.98;103895;277;38273;-75
2023/08/16 11:42:01;;;;;;;6.60;4.90;;;;;;;36.47;26.66;100801.59;103812;278;39135;-75
2023/08/16 11:44:42;;;;;;;5.20;4.50;;;;;;;36.55;26.97;100799.16;103255;277;708405;-75
2023/08/16 11:47:23;;;;;;;7.50;4.80;;;;;;;36.58;26.37;100799.85;103859;277;39414;-75
2023/08/16 11:49:58;;;;;;;9.60;4.90;;;;;;;36.58;26.45;100800.30;103858;277;38269;-75
2023/08/16 11:52:40;;;;;;;5.20;4.70;;;;;;;36.56;26.89;100807.48;103851;278;38282;-75
2023/08/16 11:55:19;;;;;;;6.80;4.60;;;;;;;36.49;26.79;100810.92;103751;277;39994;-75
2023/08/16 11:57:53;;;;;;;5.90;4.90;;;;;;;36.49;26.87;100807.70;103890;277;38308;-76
2023/08/16 12:00:40;;;;;;;6.20;4.70;;;;;;;36.64;27.42;100802.53;103865;277;38548;-75
2023/08/16 12:03:17;;;;;;;8.30;5.10;;;;;;;36.81;27.32;100795.46;103845;277;38377;-76
2023/08/16 12:06:00;;;;;;;7.60;5.20;;;;;;;36.88;27.52;100798.01;103843;277;38658;-76